FQTT

Chingozi Airport

Tete, Mozambique
TAF FQTT 251000Z 2512/2612 13008KT 9999 FEW025 BECMG 2518/2520 VRB02KT BECMG 2606/2608 02007KT TN25/2603Z TX36/2513Z
Issued Valid From Valid To
Sep-25 @ 10:00 UTC
(7 hours ago)
Sep-25 @ 12:00 UTC
(5 hours ago)
Sep-26 @ 12:00 UTC
(in 19 hours)
Sep-25 @ 12:00 to Sep-25 @ 18:00
TAF FQTT 251000Z 2512/2612 13008KT 9999 FEW025
Wind Visibility Clouds
130° at 8 knots 10,000+ meters
  • Few at 2,500' AGL
Becoming Sep-25 @ 18:00 to Sep-26 @ 06:00
BECMG 2518/2520 VRB02KT
Wind Visibility Clouds
Variable at 2 knots 10,000+ meters
  • Few at 2,500' AGL
Becoming Sep-26 @ 06:00 to Sep-26 @ 12:00
BECMG 2606/2608 02007KT TN25/2603Z TX36/2513Z
Wind Visibility Clouds
20° at 7 knots 10,000+ meters
  • Few at 2,500' AGL
TAF FQTT 251000Z 2512/2612 13008KT 9999 FEW025 BECMG 2518/2520 VRB02KT BECMG 2606/2608 02007KT TN25/2603Z TX36/2513Z
Issued Sep-25 @ 10:00 UTC
(7 hours ago)
Valid From Sep-25 @ 12:00 UTC
(5 hours ago)
Valid To Sep-26 @ 12:00 UTC
(in 19 hours)
Sep-25 @ 12:00 - Sep-25 @ 18:00
Wind Visibility
130° at 8 knots 10,000+ meters
Clouds
  • Few at 2,500' AGL
Becoming Sep-25 @ 18:00 - Sep-26 @ 06:00
Wind Visibility
Variable at 2 knots 10,000+ meters
Clouds
  • Few at 2,500' AGL
Becoming Sep-26 @ 06:00 - Sep-26 @ 12:00
Wind Visibility
20° at 7 knots 10,000+ meters
Clouds
  • Few at 2,500' AGL